Аэропорт: Полярный. Удачный

ICAO: UERP

METAR:
2022-01-28 07:30:00
UERP 280730Z 28004MPS CAVOK M22/M25 Q1021 R35/390135 NOSIG RMK QFE722
METAR:
2022-01-28 05:00:00
TAF UERP 280500Z 2806/2906 27003G08MPS CAVOK